テヘラン の空港の天気 - METARとTAF

メヘラーバード国際空港(テヘラン) ( OIII / THR ) - イラン テヘラン
飛行場実況気象(Metar)
観測時間10/01 19:00 IRST (10/01 15:30 UTC)
風向・風速南南東 2m/s
視程10km以上
天気現象
少しの雲 雲底高度 3050m
気温23℃
湿度19%
気圧1017hPa
METAROIII 011530Z 15004KT 9999 FEW100 23/M02 Q1017 A3006
過去の天気等 Google飛行場航空写真 Wunderground天気予報

過去48時間のMETAR

飛行場予報(TAF)
発表時間: 10/01 09:00 IRST (10/01 05:30 UTC)
予報対象時間: 1日9時 IRST ~ 2日15時 IRST
風向・風速南南東 4m/s
視程10km以上
なし
TAF OIII 010530Z 0106/0212 16008KT CAVOK